sensor_id;sensor_type;location;lat;lon;timestamp;pressure;altitude;pressure_sealevel;temperature;humidity
65384;BME280;51986;52.788;41.368;2023-03-26T00:01:13;98355.81;;;9.18;63.67
65384;BME280;51986;52.788;41.368;2023-03-26T00:03:41;98358.91;;;9.13;64.41
65384;BME280;51986;52.788;41.368;2023-03-26T00:06:11;98351.41;;;9.11;64.30
65384;BME280;51986;52.788;41.368;2023-03-26T00:08:40;98350.47;;;9.21;64.64
65384;BME280;51986;52.788;41.368;2023-03-26T00:11:09;98358.91;;;9.13;64.12
65384;BME280;51986;52.788;41.368;2023-03-26T00:13:36;98338.09;;;8.98;64.77
65384;BME280;51986;52.788;41.368;2023-03-26T00:16:04;98365.53;;;9.21;64.38
65384;BME280;51986;52.788;41.368;2023-03-26T00:18:31;98352.91;;;9.12;64.20
65384;BME280;51986;52.788;41.368;2023-03-26T00:21:00;98361.81;;;9.18;64.66
65384;BME280;51986;52.788;41.368;2023-03-26T00:23:29;98355.75;;;9.21;63.97
65384;BME280;51986;52.788;41.368;2023-03-26T00:25:56;98358.50;;;8.94;64.60
65384;BME280;51986;52.788;41.368;2023-03-26T00:28:23;98338.78;;;9.02;64.22
65384;BME280;51986;52.788;41.368;2023-03-26T00:30:58;98335.09;;;9.00;64.43
65384;BME280;51986;52.788;41.368;2023-03-26T00:33:27;98353.28;;;8.91;65.04
65384;BME280;51986;52.788;41.368;2023-03-26T00:35:56;98339.69;;;8.96;64.40
65384;BME280;51986;52.788;41.368;2023-03-26T00:38:24;98348.22;;;8.80;64.99
65384;BME280;51986;52.788;41.368;2023-03-26T00:40:53;98343.00;;;8.76;64.99
65384;BME280;51986;52.788;41.368;2023-03-26T00:43:21;98348.75;;;8.68;65.12
65384;BME280;51986;52.788;41.368;2023-03-26T00:45:51;98348.06;;;8.64;65.04
65384;BME280;51986;52.788;41.368;2023-03-26T00:48:20;98351.84;;;8.63;65.47
65384;BME280;51986;52.788;41.368;2023-03-26T00:51:04;98355.34;;;8.56;65.34
65384;BME280;51986;52.788;41.368;2023-03-26T00:53:31;98345.66;;;8.49;65.61
65384;BME280;51986;52.788;41.368;2023-03-26T00:55:59;98353.22;;;8.47;65.29
65384;BME280;51986;52.788;41.368;2023-03-26T00:58:26;98337.19;;;8.42;65.45
65384;BME280;51986;52.788;41.368;2023-03-26T01:00:56;98354.47;;;8.39;65.49
65384;BME280;51986;52.788;41.368;2023-03-26T01:03:25;98311.31;;;8.37;65.70
65384;BME280;51986;52.788;41.368;2023-03-26T01:05:58;98347.09;;;8.31;65.55
65384;BME280;51986;52.788;41.368;2023-03-26T01:08:32;98340.63;;;8.35;65.36
65384;BME280;51986;52.788;41.368;2023-03-26T01:11:05;98330.25;;;8.28;65.20
65384;BME280;51986;52.788;41.368;2023-03-26T01:13:37;98330.75;;;8.19;65.50
65384;BME280;51986;52.788;41.368;2023-03-26T01:16:09;98312.00;;;8.17;65.54
65384;BME280;51986;52.788;41.368;2023-03-26T01:18:40;98336.94;;;8.33;65.13
65384;BME280;51986;52.788;41.368;2023-03-26T01:21:08;98340.16;;;8.17;66.33
65384;BME280;51986;52.788;41.368;2023-03-26T01:23:47;98346.06;;;8.24;65.67
65384;BME280;51986;52.788;41.368;2023-03-26T01:26:27;98342.59;;;8.04;66.33
65384;BME280;51986;52.788;41.368;2023-03-26T01:29:01;98334.28;;;8.09;66.36
65384;BME280;51986;52.788;41.368;2023-03-26T01:34:45;98345.91;;;8.35;65.86
65384;BME280;51986;52.788;41.368;2023-03-26T01:40:25;98331.94;;;8.15;65.80
65384;BME280;51986;52.788;41.368;2023-03-26T01:43:06;98323.16;;;8.25;65.81
65384;BME280;51986;52.788;41.368;2023-03-26T01:45:37;98325.94;;;8.14;65.99
65384;BME280;51986;52.788;41.368;2023-03-26T01:48:06;98330.91;;;8.09;65.95
65384;BME280;51986;52.788;41.368;2023-03-26T01:50:32;98319.31;;;8.06;65.78
65384;BME280;51986;52.788;41.368;2023-03-26T01:53:00;98328.22;;;8.12;66.04
65384;BME280;51986;52.788;41.368;2023-03-26T01:55:34;98309.75;;;7.92;65.62
65384;BME280;51986;52.788;41.368;2023-03-26T01:58:14;98326.13;;;8.04;65.77
65384;BME280;51986;52.788;41.368;2023-03-26T02:00:56;98321.72;;;7.93;65.67
65384;BME280;51986;52.788;41.368;2023-03-26T02:03:38;98312.81;;;7.87;66.61
65384;BME280;51986;52.788;41.368;2023-03-26T02:06:26;98346.13;;;7.94;66.02
65384;BME280;51986;52.788;41.368;2023-03-26T02:09:02;98326.25;;;7.93;65.80
65384;BME280;51986;52.788;41.368;2023-03-26T02:11:32;98338.38;;;7.83;65.81
65384;BME280;51986;52.788;41.368;2023-03-26T02:14:03;98340.66;;;7.81;66.22
65384;BME280;51986;52.788;41.368;2023-03-26T02:16:31;98338.34;;;7.87;66.02
65384;BME280;51986;52.788;41.368;2023-03-26T02:18:58;98345.47;;;7.86;66.29
65384;BME280;51986;52.788;41.368;2023-03-26T02:21:26;98317.53;;;7.72;66.52
65384;BME280;51986;52.788;41.368;2023-03-26T02:23:56;98309.38;;;7.63;66.20
65384;BME280;51986;52.788;41.368;2023-03-26T02:26:24;98342.19;;;7.79;66.32
65384;BME280;51986;52.788;41.368;2023-03-26T02:29:07;98336.75;;;7.66;66.39
65384;BME280;51986;52.788;41.368;2023-03-26T02:31:35;98351.66;;;7.42;67.61
65384;BME280;51986;52.788;41.368;2023-03-26T02:34:02;98326.78;;;7.50;67.37
65384;BME280;51986;52.788;41.368;2023-03-26T02:36:32;98342.34;;;7.37;67.24
65384;BME280;51986;52.788;41.368;2023-03-26T02:39:01;98358.16;;;7.27;68.05
65384;BME280;51986;52.788;41.368;2023-03-26T02:41:32;98338.00;;;7.20;68.67
65384;BME280;51986;52.788;41.368;2023-03-26T02:44:04;98347.72;;;7.23;68.37
65384;BME280;51986;52.788;41.368;2023-03-26T02:46:49;98329.69;;;7.29;68.26
65384;BME280;51986;52.788;41.368;2023-03-26T02:49:36;98332.31;;;7.29;68.39
65384;BME280;51986;52.788;41.368;2023-03-26T02:52:04;98306.41;;;7.31;67.52
65384;BME280;51986;52.788;41.368;2023-03-26T02:54:32;98348.75;;;7.33;67.96
65384;BME280;51986;52.788;41.368;2023-03-26T02:57:21;98330.53;;;7.18;68.30
65384;BME280;51986;52.788;41.368;2023-03-26T03:00:13;98335.75;;;7.22;68.19
65384;BME280;51986;52.788;41.368;2023-03-26T03:02:43;98326.50;;;7.10;68.51
65384;BME280;51986;52.788;41.368;2023-03-26T03:05:37;98324.13;;;7.23;68.44
65384;BME280;51986;52.788;41.368;2023-03-26T03:08:26;98334.41;;;7.07;69.02
65384;BME280;51986;52.788;41.368;2023-03-26T03:11:23;98328.03;;;7.08;68.89
65384;BME280;51986;52.788;41.368;2023-03-26T03:13:51;98311.38;;;7.21;68.55
65384;BME280;51986;52.788;41.368;2023-03-26T03:16:24;98342.53;;;7.19;68.64
65384;BME280;51986;52.788;41.368;2023-03-26T03:18:53;98307.53;;;7.33;67.76
65384;BME280;51986;52.788;41.368;2023-03-26T03:21:23;98320.94;;;7.39;67.75
65384;BME280;51986;52.788;41.368;2023-03-26T03:23:50;98313.19;;;7.59;67.34
65384;BME280;51986;52.788;41.368;2023-03-26T03:26:19;98310.13;;;7.64;67.11
65384;BME280;51986;52.788;41.368;2023-03-26T03:28:51;98303.88;;;7.85;66.27
65384;BME280;51986;52.788;41.368;2023-03-26T03:31:18;98300.75;;;8.17;65.11
65384;BME280;51986;52.788;41.368;2023-03-26T03:33:45;98295.44;;;7.97;65.42
65384;BME280;51986;52.788;41.368;2023-03-26T03:36:15;98316.38;;;8.00;65.38
65384;BME280;51986;52.788;41.368;2023-03-26T03:38:54;98296.28;;;7.90;65.72
65384;BME280;51986;52.788;41.368;2023-03-26T03:41:22;98292.25;;;7.82;65.97
65384;BME280;51986;52.788;41.368;2023-03-26T03:43:49;98306.53;;;7.81;66.11
65384;BME280;51986;52.788;41.368;2023-03-26T03:46:23;98323.31;;;7.87;66.38
65384;BME280;51986;52.788;41.368;2023-03-26T03:48:50;98309.34;;;7.67;66.48
65384;BME280;51986;52.788;41.368;2023-03-26T03:51:34;98317.84;;;7.74;66.45
65384;BME280;51986;52.788;41.368;2023-03-26T03:54:04;98315.31;;;7.71;66.52
65384;BME280;51986;52.788;41.368;2023-03-26T03:56:51;98307.88;;;7.66;66.69
65384;BME280;51986;52.788;41.368;2023-03-26T03:59:36;98332.53;;;7.72;66.76
65384;BME280;51986;52.788;41.368;2023-03-26T04:02:07;98300.91;;;7.79;66.11
65384;BME280;51986;52.788;41.368;2023-03-26T04:04:40;98296.44;;;7.80;66.20
65384;BME280;51986;52.788;41.368;2023-03-26T04:07:10;98312.47;;;7.85;66.42
65384;BME280;51986;52.788;41.368;2023-03-26T04:10:04;98306.41;;;7.88;66.12
65384;BME280;51986;52.788;41.368;2023-03-26T04:12:57;98302.75;;;7.82;66.34
65384;BME280;51986;52.788;41.368;2023-03-26T04:15:44;98293.41;;;7.81;66.26
65384;BME280;51986;52.788;41.368;2023-03-26T04:18:11;98301.25;;;7.85;66.45
65384;BME280;51986;52.788;41.368;2023-03-26T04:20:44;98290.75;;;7.85;66.02
65384;BME280;51986;52.788;41.368;2023-03-26T04:23:17;98310.47;;;7.93;65.51
65384;BME280;51986;52.788;41.368;2023-03-26T04:25:52;98301.31;;;8.05;65.11
65384;BME280;51986;52.788;41.368;2023-03-26T04:28:43;98298.00;;;8.00;65.63
65384;BME280;51986;52.788;41.368;2023-03-26T04:31:18;98301.63;;;8.10;65.15
65384;BME280;51986;52.788;41.368;2023-03-26T04:33:46;98284.91;;;7.97;65.88
65384;BME280;51986;52.788;41.368;2023-03-26T04:36:17;98284.75;;;8.08;65.23
65384;BME280;51986;52.788;41.368;2023-03-26T04:38:48;98291.97;;;8.27;64.82
65384;BME280;51986;52.788;41.368;2023-03-26T04:41:19;98286.28;;;8.32;64.20
65384;BME280;51986;52.788;41.368;2023-03-26T04:43:53;98286.38;;;8.48;63.97
65384;BME280;51986;52.788;41.368;2023-03-26T04:46:43;98280.47;;;8.41;64.39
65384;BME280;51986;52.788;41.368;2023-03-26T04:49:36;98288.06;;;8.59;64.15
65384;BME280;51986;52.788;41.368;2023-03-26T04:52:04;98299.22;;;8.66;64.21
65384;BME280;51986;52.788;41.368;2023-03-26T04:54:51;98278.47;;;8.72;63.43
65384;BME280;51986;52.788;41.368;2023-03-26T04:57:27;98292.53;;;8.85;63.21
65384;BME280;51986;52.788;41.368;2023-03-26T05:00:00;98295.69;;;8.96;62.61
65384;BME280;51986;52.788;41.368;2023-03-26T05:02:32;98287.59;;;9.27;62.56
65384;BME280;51986;52.788;41.368;2023-03-26T05:04:59;98306.69;;;9.31;61.64
65384;BME280;51986;52.788;41.368;2023-03-26T05:07:28;98293.59;;;9.47;61.35
65384;BME280;51986;52.788;41.368;2023-03-26T05:09:57;98290.59;;;9.82;60.86
65384;BME280;51986;52.788;41.368;2023-03-26T05:12:47;98293.41;;;9.91;61.18
65384;BME280;51986;52.788;41.368;2023-03-26T05:15:18;98279.31;;;10.14;60.39
65384;BME280;51986;52.788;41.368;2023-03-26T05:18:01;98275.78;;;10.20;59.75
65384;BME280;51986;52.788;41.368;2023-03-26T05:20:50;98271.09;;;10.44;59.24
65384;BME280;51986;52.788;41.368;2023-03-26T05:23:17;98288.34;;;10.62;59.23
65384;BME280;51986;52.788;41.368;2023-03-26T05:26:05;98280.41;;;10.78;59.28
65384;BME280;51986;52.788;41.368;2023-03-26T05:28:32;98290.72;;;11.01;57.94
65384;BME280;51986;52.788;41.368;2023-03-26T05:31:10;98275.06;;;10.94;58.38
65384;BME280;51986;52.788;41.368;2023-03-26T05:33:43;98272.81;;;10.80;58.78
65384;BME280;51986;52.788;41.368;2023-03-26T05:36:12;98276.06;;;11.00;58.75
65384;BME280;51986;52.788;41.368;2023-03-26T05:38:44;98255.28;;;11.28;57.42
65384;BME280;51986;52.788;41.368;2023-03-26T05:41:11;98268.59;;;11.12;57.94
65384;BME280;51986;52.788;41.368;2023-03-26T05:43:41;98264.88;;;11.09;58.36
65384;BME280;51986;52.788;41.368;2023-03-26T05:46:11;98272.84;;;11.34;57.75
65384;BME280;51986;52.788;41.368;2023-03-26T05:48:38;98270.28;;;11.31;57.77
65384;BME280;51986;52.788;41.368;2023-03-26T05:51:06;98268.34;;;11.06;58.13
65384;BME280;51986;52.788;41.368;2023-03-26T05:53:33;98282.94;;;11.11;58.55
65384;BME280;51986;52.788;41.368;2023-03-26T05:56:19;98286.53;;;11.17;58.07
65384;BME280;51986;52.788;41.368;2023-03-26T05:59:04;98278.00;;;11.38;57.30
65384;BME280;51986;52.788;41.368;2023-03-26T06:01:50;98275.25;;;11.29;57.39
65384;BME280;51986;52.788;41.368;2023-03-26T06:04:37;98290.38;;;11.41;56.93
65384;BME280;51986;52.788;41.368;2023-03-26T06:07:27;98305.63;;;11.75;57.19
65384;BME280;51986;52.788;41.368;2023-03-26T06:10:08;98268.31;;;11.60;57.07
65384;BME280;51986;52.788;41.368;2023-03-26T06:12:47;98270.84;;;11.77;56.79
65384;BME280;51986;52.788;41.368;2023-03-26T06:15:16;98277.94;;;11.80;56.29
65384;BME280;51986;52.788;41.368;2023-03-26T06:18:01;98278.22;;;11.56;57.01
65384;BME280;51986;52.788;41.368;2023-03-26T06:20:55;98289.09;;;11.33;57.74
65384;BME280;51986;52.788;41.368;2023-03-26T06:23:36;98286.63;;;11.13;58.69
65384;BME280;51986;52.788;41.368;2023-03-26T06:26:16;98293.66;;;11.03;58.87
65384;BME280;51986;52.788;41.368;2023-03-26T06:29:17;98292.06;;;10.93;59.39
65384;BME280;51986;52.788;41.368;2023-03-26T06:31:53;98285.81;;;10.87;59.52
65384;BME280;51986;52.788;41.368;2023-03-26T06:34:24;98289.88;;;11.04;59.38
65384;BME280;51986;52.788;41.368;2023-03-26T06:36:55;98290.88;;;11.23;59.14
65384;BME280;51986;52.788;41.368;2023-03-26T06:39:22;98291.97;;;11.51;58.29
65384;BME280;51986;52.788;41.368;2023-03-26T06:42:05;98293.25;;;11.85;57.61
65384;BME280;51986;52.788;41.368;2023-03-26T06:44:52;98270.75;;;11.80;57.38
65384;BME280;51986;52.788;41.368;2023-03-26T06:47:38;98283.53;;;11.56;58.10
65384;BME280;51986;52.788;41.368;2023-03-26T06:50:17;98270.53;;;12.00;57.71
65384;BME280;51986;52.788;41.368;2023-03-26T06:53:10;98284.38;;;12.04;57.00
65384;BME280;51986;52.788;41.368;2023-03-26T06:56:03;98269.69;;;12.38;56.62
65384;BME280;51986;52.788;41.368;2023-03-26T06:59:06;98238.78;;;12.13;55.97
65384;BME280;51986;52.788;41.368;2023-03-26T07:01:52;98257.00;;;12.46;55.95
65384;BME280;51986;52.788;41.368;2023-03-26T07:04:37;98227.94;;;12.33;55.63
65384;BME280;51986;52.788;41.368;2023-03-26T07:07:23;98270.03;;;12.40;56.37
65384;BME280;51986;52.788;41.368;2023-03-26T07:10:09;98261.66;;;12.42;55.18
65384;BME280;51986;52.788;41.368;2023-03-26T07:12:39;98250.91;;;12.23;55.67
65384;BME280;51986;52.788;41.368;2023-03-26T07:15:26;98256.13;;;12.49;55.65
65384;BME280;51986;52.788;41.368;2023-03-26T07:18:12;98289.34;;;12.50;55.71
65384;BME280;51986;52.788;41.368;2023-03-26T07:20:43;98261.50;;;12.23;56.38
65384;BME280;51986;52.788;41.368;2023-03-26T07:23:15;98281.69;;;12.65;56.13
65384;BME280;51986;52.788;41.368;2023-03-26T07:25:55;98289.47;;;12.46;56.30
65384;BME280;51986;52.788;41.368;2023-03-26T07:29:03;98263.81;;;12.56;55.57
65384;BME280;51986;52.788;41.368;2023-03-26T07:36:28;98242.41;;;12.85;55.00
65384;BME280;51986;52.788;41.368;2023-03-26T07:45:43;98258.56;;;13.00;55.26
65384;BME280;51986;52.788;41.368;2023-03-26T07:48:41;98248.06;;;12.96;55.76
65384;BME280;51986;52.788;41.368;2023-03-26T07:51:29;98244.59;;;12.99;55.75
65384;BME280;51986;52.788;41.368;2023-03-26T07:54:26;98235.00;;;13.24;55.09
65384;BME280;51986;52.788;41.368;2023-03-26T08:00:37;98221.00;;;13.45;54.55
65384;BME280;51986;52.788;41.368;2023-03-26T08:06:38;98228.66;;;13.52;54.94
65384;BME280;51986;52.788;41.368;2023-03-26T08:09:29;98247.28;;;13.39;55.51
65384;BME280;51986;52.788;41.368;2023-03-26T08:12:36;98224.00;;;13.75;54.65
65384;BME280;51986;52.788;41.368;2023-03-26T08:18:19;98209.44;;;13.70;54.80
65384;BME280;51986;52.788;41.368;2023-03-26T08:20:56;98223.78;;;14.09;53.85
65384;BME280;51986;52.788;41.368;2023-03-26T08:23:34;98215.78;;;13.91;54.15
65384;BME280;51986;52.788;41.368;2023-03-26T08:26:30;98207.16;;;14.18;53.31
65384;BME280;51986;52.788;41.368;2023-03-26T08:29:13;98228.16;;;13.85;53.90
65384;BME280;51986;52.788;41.368;2023-03-26T08:31:45;98197.88;;;14.13;53.93
65384;BME280;51986;52.788;41.368;2023-03-26T08:34:13;98204.66;;;14.24;53.47
65384;BME280;51986;52.788;41.368;2023-03-26T08:36:40;98193.72;;;14.49;53.17
65384;BME280;51986;52.788;41.368;2023-03-26T08:39:07;98186.22;;;14.48;53.09
65384;BME280;51986;52.788;41.368;2023-03-26T08:44:49;98180.06;;;14.93;52.19
65384;BME280;51986;52.788;41.368;2023-03-26T09:07:45;98203.41;;;14.89;51.67
65384;BME280;51986;52.788;41.368;2023-03-26T09:10:45;98177.59;;;14.89;51.87
65384;BME280;51986;52.788;41.368;2023-03-26T09:21:52;98171.88;;;14.73;50.26
65384;BME280;51986;52.788;41.368;2023-03-26T09:27:37;98175.13;;;14.67;50.49
65384;BME280;51986;52.788;41.368;2023-03-26T09:33:05;98155.06;;;14.66;50.47
65384;BME280;51986;52.788;41.368;2023-03-26T09:38:52;98159.97;;;15.01;50.96
65384;BME280;51986;52.788;41.368;2023-03-26T09:42:13;98158.38;;;14.43;52.30
65384;BME280;51986;52.788;41.368;2023-03-26T09:44:48;98166.06;;;14.13;53.69
65384;BME280;51986;52.788;41.368;2023-03-26T10:03:45;98165.47;;;14.28;51.50
65384;BME280;51986;52.788;41.368;2023-03-26T10:06:40;98169.22;;;14.63;51.38
65384;BME280;51986;52.788;41.368;2023-03-26T10:09:13;98162.88;;;14.70;50.61
65384;BME280;51986;52.788;41.368;2023-03-26T10:14:55;98164.22;;;14.75;50.75
65384;BME280;51986;52.788;41.368;2023-03-26T10:31:56;98139.22;;;14.90;50.07
65384;BME280;51986;52.788;41.368;2023-03-26T10:43:42;98165.44;;;14.98;50.70
65384;BME280;51986;52.788;41.368;2023-03-26T10:46:30;98162.41;;;14.81;50.45
65384;BME280;51986;52.788;41.368;2023-03-26T10:49:25;98127.59;;;14.79;50.78
65384;BME280;51986;52.788;41.368;2023-03-26T10:52:09;98143.00;;;14.56;50.28
65384;BME280;51986;52.788;41.368;2023-03-26T10:55:02;98144.50;;;14.48;50.82
65384;BME280;51986;52.788;41.368;2023-03-26T10:57:49;98144.66;;;14.96;50.46
65384;BME280;51986;52.788;41.368;2023-03-26T11:00:22;98151.94;;;14.77;50.02
65384;BME280;51986;52.788;41.368;2023-03-26T11:03:12;98141.59;;;14.88;50.47
65384;BME280;51986;52.788;41.368;2023-03-26T11:33:52;98074.97;;;15.58;46.75
65384;BME280;51986;52.788;41.368;2023-03-26T11:36:25;98079.09;;;16.13;46.02
65384;BME280;51986;52.788;41.368;2023-03-26T11:38:58;98071.75;;;15.93;45.28
65384;BME280;51986;52.788;41.368;2023-03-26T11:41:31;98072.78;;;15.33;45.63
65384;BME280;51986;52.788;41.368;2023-03-26T11:44:19;98068.00;;;15.46;45.50
65384;BME280;51986;52.788;41.368;2023-03-26T11:46:50;98066.22;;;15.67;45.83
65384;BME280;51986;52.788;41.368;2023-03-26T11:49:20;98033.47;;;15.61;45.48
65384;BME280;51986;52.788;41.368;2023-03-26T11:51:48;98068.16;;;15.96;45.19
65384;BME280;51986;52.788;41.368;2023-03-26T11:54:15;98051.88;;;16.18;44.64
65384;BME280;51986;52.788;41.368;2023-03-26T11:57:05;98076.03;;;15.76;45.62
65384;BME280;51986;52.788;41.368;2023-03-26T12:02:26;98051.13;;;16.03;45.44
65384;BME280;51986;52.788;41.368;2023-03-26T12:05:16;98072.56;;;15.84;45.24
65384;BME280;51986;52.788;41.368;2023-03-26T12:07:53;98057.72;;;15.92;45.15
65384;BME280;51986;52.788;41.368;2023-03-26T12:12:54;98069.22;;;16.13;45.07
65384;BME280;51986;52.788;41.368;2023-03-26T12:15:23;98069.50;;;16.30;44.81
65384;BME280;51986;52.788;41.368;2023-03-26T12:17:54;98025.34;;;16.09;44.59
65384;BME280;51986;52.788;41.368;2023-03-26T12:22:55;98050.38;;;16.17;44.61
65384;BME280;51986;52.788;41.368;2023-03-26T12:25:24;98042.78;;;15.95;45.26
65384;BME280;51986;52.788;41.368;2023-03-26T12:30:36;98023.88;;;16.23;44.62
65384;BME280;51986;52.788;41.368;2023-03-26T12:33:11;98053.69;;;16.12;45.00
65384;BME280;51986;52.788;41.368;2023-03-26T12:35:39;98049.88;;;16.42;44.58
65384;BME280;51986;52.788;41.368;2023-03-26T12:41:14;98024.06;;;16.49;43.98
65384;BME280;51986;52.788;41.368;2023-03-26T12:44:27;98018.09;;;16.09;45.38
65384;BME280;51986;52.788;41.368;2023-03-26T12:47:19;98019.00;;;15.77;45.53
65384;BME280;51986;52.788;41.368;2023-03-26T12:50:12;98020.13;;;15.85;46.07
65384;BME280;51986;52.788;41.368;2023-03-26T13:06:49;98002.28;;;15.47;46.80
65384;BME280;51986;52.788;41.368;2023-03-26T13:09:49;98027.44;;;15.75;46.51
65384;BME280;51986;52.788;41.368;2023-03-26T13:15:07;98016.19;;;16.10;45.78
65384;BME280;51986;52.788;41.368;2023-03-26T13:18:06;98002.88;;;16.10;46.24
65384;BME280;51986;52.788;41.368;2023-03-26T13:34:56;98000.94;;;15.81;47.25
65384;BME280;51986;52.788;41.368;2023-03-26T13:37:42;97993.88;;;15.63;47.41
65384;BME280;51986;52.788;41.368;2023-03-26T13:40:25;97992.59;;;15.88;47.36
65384;BME280;51986;52.788;41.368;2023-03-26T13:48:59;97980.13;;;15.64;47.82
65384;BME280;51986;52.788;41.368;2023-03-26T13:54:15;98014.97;;;15.66;48.39
65384;BME280;51986;52.788;41.368;2023-03-26T13:56:54;97985.91;;;15.63;47.84
65384;BME280;51986;52.788;41.368;2023-03-26T13:59:53;97967.47;;;15.74;48.08
65384;BME280;51986;52.788;41.368;2023-03-26T14:02:34;97974.53;;;15.77;47.60
65384;BME280;51986;52.788;41.368;2023-03-26T14:10:39;97960.44;;;15.56;48.96
65384;BME280;51986;52.788;41.368;2023-03-26T14:13:32;97958.84;;;15.64;48.99
65384;BME280;51986;52.788;41.368;2023-03-26T14:16:45;97970.78;;;15.69;48.44
65384;BME280;51986;52.788;41.368;2023-03-26T14:24:50;97970.19;;;15.50;48.89
65384;BME280;51986;52.788;41.368;2023-03-26T14:30:41;97967.00;;;15.46;49.68
65384;BME280;51986;52.788;41.368;2023-03-26T14:36:21;97949.03;;;15.17;49.90
65384;BME280;51986;52.788;41.368;2023-03-26T14:41:40;97960.84;;;15.16;50.84
65384;BME280;51986;52.788;41.368;2023-03-26T14:47:17;97944.44;;;15.03;51.12
65384;BME280;51986;52.788;41.368;2023-03-26T14:52:51;97932.69;;;14.95;51.31
65384;BME280;51986;52.788;41.368;2023-03-26T14:55:50;97938.53;;;14.84;51.44
65384;BME280;51986;52.788;41.368;2023-03-26T15:04:45;97951.13;;;14.74;52.08
65384;BME280;51986;52.788;41.368;2023-03-26T15:16:56;97953.41;;;14.57;52.47
65384;BME280;51986;52.788;41.368;2023-03-26T15:23:03;97945.13;;;14.40;52.40
65384;BME280;51986;52.788;41.368;2023-03-26T15:28:32;97945.88;;;14.32;52.45
65384;BME280;51986;52.788;41.368;2023-03-26T15:31:30;97936.34;;;14.16;52.59
65384;BME280;51986;52.788;41.368;2023-03-26T15:51:06;97930.66;;;13.99;53.37
65384;BME280;51986;52.788;41.368;2023-03-26T15:54:01;97922.25;;;14.01;53.22
65384;BME280;51986;52.788;41.368;2023-03-26T16:02:50;97910.47;;;13.93;52.82
65384;BME280;51986;52.788;41.368;2023-03-26T16:10:57;97917.50;;;13.62;54.06
65384;BME280;51986;52.788;41.368;2023-03-26T16:16:56;97932.34;;;13.78;54.13
65384;BME280;51986;52.788;41.368;2023-03-26T16:19:45;97935.88;;;13.66;55.07
65384;BME280;51986;52.788;41.368;2023-03-26T16:25:30;97924.88;;;13.49;55.97
65384;BME280;51986;52.788;41.368;2023-03-26T16:28:28;97924.09;;;13.67;55.78
65384;BME280;51986;52.788;41.368;2023-03-26T16:33:55;97894.56;;;13.50;55.94
65384;BME280;51986;52.788;41.368;2023-03-26T16:41:29;97925.19;;;13.42;57.14
65384;BME280;51986;52.788;41.368;2023-03-26T16:44:26;97931.81;;;13.37;57.03
65384;BME280;51986;52.788;41.368;2023-03-26T16:47:26;97904.00;;;13.33;57.13
65384;BME280;51986;52.788;41.368;2023-03-26T16:53:14;97913.00;;;13.26;57.48
65384;BME280;51986;52.788;41.368;2023-03-26T16:56:01;97909.63;;;13.07;57.73
65384;BME280;51986;52.788;41.368;2023-03-26T16:59:16;97911.94;;;13.15;58.03
65384;BME280;51986;52.788;41.368;2023-03-26T17:02:02;97935.78;;;13.15;57.95
65384;BME280;51986;52.788;41.368;2023-03-26T17:04:34;97917.25;;;13.15;57.38
65384;BME280;51986;52.788;41.368;2023-03-26T17:15:16;97914.31;;;13.03;57.79
65384;BME280;51986;52.788;41.368;2023-03-26T17:18:15;97909.31;;;13.05;58.10
65384;BME280;51986;52.788;41.368;2023-03-26T17:21:12;97893.00;;;12.98;58.58
65384;BME280;51986;52.788;41.368;2023-03-26T17:24:08;97909.03;;;13.12;58.89
65384;BME280;51986;52.788;41.368;2023-03-26T17:27:16;97912.25;;;12.98;58.74
65384;BME280;51986;52.788;41.368;2023-03-26T17:32:18;97905.78;;;12.99;59.36
65384;BME280;51986;52.788;41.368;2023-03-26T17:34:59;97896.94;;;12.93;59.91
65384;BME280;51986;52.788;41.368;2023-03-26T17:37:31;97894.41;;;12.80;59.84
65384;BME280;51986;52.788;41.368;2023-03-26T17:42:30;97882.81;;;12.69;60.72
65384;BME280;51986;52.788;41.368;2023-03-26T17:45:00;97892.63;;;12.77;60.36
65384;BME280;51986;52.788;41.368;2023-03-26T17:47:37;97881.31;;;12.68;60.63
65384;BME280;51986;52.788;41.368;2023-03-26T17:53:00;97872.22;;;12.59;61.96
65384;BME280;51986;52.788;41.368;2023-03-26T17:55:31;97880.44;;;12.61;61.24
65384;BME280;51986;52.788;41.368;2023-03-26T17:58:05;97888.66;;;12.54;61.51
65384;BME280;51986;52.788;41.368;2023-03-26T18:00:41;97880.28;;;12.56;61.84
65384;BME280;51986;52.788;41.368;2023-03-26T18:03:34;97884.53;;;12.53;61.47
65384;BME280;51986;52.788;41.368;2023-03-26T18:06:12;97904.22;;;12.52;61.87
65384;BME280;51986;52.788;41.368;2023-03-26T18:08:57;97868.94;;;12.37;62.26
65384;BME280;51986;52.788;41.368;2023-03-26T18:14:44;97872.47;;;12.43;62.00
65384;BME280;51986;52.788;41.368;2023-03-26T18:17:14;97873.19;;;12.44;62.30
65384;BME280;51986;52.788;41.368;2023-03-26T18:20:05;97870.72;;;12.49;62.03
65384;BME280;51986;52.788;41.368;2023-03-26T18:22:32;97861.16;;;12.43;62.07
65384;BME280;51986;52.788;41.368;2023-03-26T18:25:01;97866.28;;;12.37;61.94
65384;BME280;51986;52.788;41.368;2023-03-26T18:27:35;97859.69;;;12.42;62.20
65384;BME280;51986;52.788;41.368;2023-03-26T18:30:14;97860.25;;;12.36;62.03
65384;BME280;51986;52.788;41.368;2023-03-26T18:32:56;97863.50;;;12.41;61.68
65384;BME280;51986;52.788;41.368;2023-03-26T18:35:42;97868.94;;;12.37;61.91
65384;BME280;51986;52.788;41.368;2023-03-26T18:38:15;97872.16;;;12.32;62.15
65384;BME280;51986;52.788;41.368;2023-03-26T18:41:02;97836.47;;;12.36;61.49
65384;BME280;51986;52.788;41.368;2023-03-26T18:43:32;97840.13;;;12.30;62.12
65384;BME280;51986;52.788;41.368;2023-03-26T18:46:11;97851.16;;;12.47;61.00
65384;BME280;51986;52.788;41.368;2023-03-26T18:48:39;97853.53;;;12.45;61.61
65384;BME280;51986;52.788;41.368;2023-03-26T18:51:07;97857.19;;;12.47;61.45
65384;BME280;51986;52.788;41.368;2023-03-26T18:53:49;97845.63;;;12.54;61.52
65384;BME280;51986;52.788;41.368;2023-03-26T18:56:19;97866.31;;;12.46;61.05